Time;durP1;ratioP1;P1;durP2;ratioP2;P2;SDS_P1;SDS_P2;PMS_P1;PMS_P2;Temp;Humidity;BMP_temperature;BMP_pressure;BME280_temperature;BME280_humidity;BME280_pressure;Samples;Min_cycle;Max_cycle;Signal;HPM_P1;HPM_P2
2022/10/05 00:01:24;;;;;;;1.00;1.00;;;;;9.30;96514.00;;;;5116172;28;20237;-50
2022/10/05 00:03:57;;;;;;;0.90;0.90;;;;;9.20;96511.00;;;;5098516;28;20605;-51
2022/10/05 00:06:29;;;;;;;1.53;1.43;;;;;9.20;96505.00;;;;5116152;28;20297;-50
2022/10/05 00:08:56;;;;;;;0.90;0.90;;;;;8.90;96513.00;;;;5116181;28;20198;-50
2022/10/05 00:11:22;;;;;;;0.70;0.70;;;;;8.80;96505.00;;;;5115891;28;20290;-50
2022/10/05 00:13:52;;;;;;;0.83;0.83;;;;;8.80;96509.00;;;;5115855;28;20224;-50
2022/10/05 00:16:20;;;;;;;0.60;0.60;;;;;8.80;96507.00;;;;5098005;28;20221;-50
2022/10/05 00:18:49;;;;;;;1.10;1.10;;;;;8.90;96507.00;;;;5115732;28;20218;-49
2022/10/05 00:21:22;;;;;;;0.77;0.77;;;;;8.90;96512.00;;;;5115974;28;20213;-50
2022/10/05 00:23:49;;;;;;;1.33;1.23;;;;;8.80;96499.00;;;;5116060;28;20516;-50
2022/10/05 00:26:19;;;;;;;1.00;1.00;;;;;8.80;96499.00;;;;5115829;28;20186;-50
2022/10/05 00:28:46;;;;;;;0.77;0.77;;;;;8.70;96499.00;;;;5115304;28;20206;-50
2022/10/05 00:31:16;;;;;;;0.93;0.93;;;;;8.60;96499.00;;;;5115659;28;20259;-50
2022/10/05 00:33:43;;;;;;;0.80;0.80;;;;;8.60;96502.00;;;;5115721;28;20194;-49
2022/10/05 00:36:10;;;;;;;0.63;0.63;;;;;8.50;96505.00;;;;5115524;28;20205;-49
2022/10/05 00:38:38;;;;;;;0.80;0.80;;;;;8.50;96501.00;;;;5115631;28;20190;-50
2022/10/05 00:41:12;;;;;;;0.60;0.60;;;;;8.40;96501.00;;;;5097532;28;20540;-50
2022/10/05 00:43:56;;;;;;;0.70;0.70;;;;;8.40;96503.00;;;;5115499;28;20223;-50
2022/10/05 00:46:30;;;;;;;0.60;0.60;;;;;8.30;96494.00;;;;5097561;28;20340;-49
2022/10/05 00:49:10;;;;;;;0.80;0.80;;;;;8.30;96488.00;;;;5115436;28;20198;-50
2022/10/05 00:51:43;;;;;;;0.73;0.73;;;;;8.30;96491.00;;;;5115420;28;20663;-50
2022/10/05 00:54:25;;;;;;;2.77;1.60;;;;;8.30;96492.00;;;;5115425;28;20205;-51
2022/10/05 00:57:17;;;;;;;0.90;0.90;;;;;8.40;96499.00;;;;5115237;28;20548;-50
2022/10/05 00:59:54;;;;;;;0.60;0.60;;;;;8.40;96490.00;;;;5115132;28;20194;-50
2022/10/05 01:02:29;;;;;;;1.27;1.23;;;;;8.40;96500.00;;;;5115038;28;20649;-50
2022/10/05 01:05:03;;;;;;;0.97;0.97;;;;;8.40;96493.00;;;;5115166;28;20186;-50
2022/10/05 01:07:38;;;;;;;0.90;0.90;;;;;8.50;96494.00;;;;5114931;28;20218;-50
2022/10/05 01:10:17;;;;;;;0.60;0.60;;;;;8.50;96505.00;;;;5115136;28;20311;-50
2022/10/05 01:12:54;;;;;;;1.00;1.00;;;;;8.50;96500.00;;;;5114826;28;20611;-50
2022/10/05 01:15:28;;;;;;;1.30;1.20;;;;;8.50;96494.00;;;;5114851;28;20202;-51
2022/10/05 01:18:02;;;;;;;0.80;0.80;;;;;8.50;96488.00;;;;5096847;28;20695;-50
2022/10/05 01:20:38;;;;;;;1.03;1.03;;;;;8.20;96486.00;;;;5114140;28;20304;-50
2022/10/05 01:23:29;;;;;;;0.70;0.70;;;;;8.30;96486.00;;;;5114967;28;20196;-50
2022/10/05 01:26:15;;;;;;;0.83;0.83;;;;;8.30;96484.00;;;;5114810;28;20277;-51
2022/10/05 01:28:46;;;;;;;0.93;0.93;;;;;8.30;96484.00;;;;5096815;28;20213;-49
2022/10/05 01:31:26;;;;;;;0.70;0.70;;;;;8.50;96487.00;;;;5096646;28;20178;-50
2022/10/05 01:34:10;;;;;;;1.17;1.00;;;;;8.50;96486.00;;;;5114651;28;20193;-51
2022/10/05 01:36:44;;;;;;;2.63;2.00;;;;;8.40;96476.00;;;;5114730;28;20194;-50
2022/10/05 01:39:23;;;;;;;4.03;1.57;;;;;8.40;96477.00;;;;5113337;28;20202;-51
2022/10/05 01:42:00;;;;;;;0.73;0.73;;;;;8.30;96477.00;;;;5096688;28;20253;-50
2022/10/05 01:44:32;;;;;;;0.70;0.70;;;;;8.30;96480.00;;;;5114341;28;20189;-53
2022/10/05 01:47:09;;;;;;;0.90;0.90;;;;;8.30;96483.00;;;;5096354;28;20289;-50
2022/10/05 01:49:42;;;;;;;0.73;0.73;;;;;8.30;96475.00;;;;5114656;28;20517;-51
2022/10/05 01:52:21;;;;;;;0.70;0.70;;;;;8.20;96474.00;;;;5114179;28;20234;-50
2022/10/05 01:55:01;;;;;;;1.17;0.80;;;;;8.10;96469.00;;;;5114435;28;20209;-51
2022/10/05 01:57:49;;;;;;;0.70;0.70;;;;;8.00;96467.00;;;;5096104;28;20224;-51
2022/10/05 02:00:18;;;;;;;0.70;0.70;;;;;8.00;96464.00;;;;5114162;28;20272;-51
2022/10/05 02:03:03;;;;;;;0.90;0.90;;;;;7.90;96461.00;;;;5114082;28;21312;-51
2022/10/05 02:05:36;;;;;;;0.70;0.70;;;;;7.80;96464.00;;;;5114174;28;20197;-50
2022/10/05 02:08:10;;;;;;;0.83;0.83;;;;;7.80;96456.00;;;;5114011;28;20194;-50
2022/10/05 02:10:41;;;;;;;0.87;0.87;;;;;7.70;96452.00;;;;5096368;28;20217;-50
2022/10/05 02:13:13;;;;;;;0.70;0.70;;;;;7.70;96449.00;;;;5114003;28;20676;-50
2022/10/05 02:15:44;;;;;;;0.80;0.80;;;;;7.60;96444.00;;;;5113020;28;20212;-50
2022/10/05 02:18:19;;;;;;;0.97;0.97;;;;;7.60;96404.00;;;;5113902;28;20277;-50
2022/10/05 02:20:49;;;;;;;0.70;0.70;;;;;7.60;96442.00;;;;5113867;28;20245;-50
2022/10/05 02:23:21;;;;;;;0.67;0.67;;;;;7.60;96433.00;;;;5095993;28;20215;-50
2022/10/05 02:25:50;;;;;;;0.60;0.60;;;;;7.50;96440.00;;;;5113762;28;20218;-50
2022/10/05 02:28:21;;;;;;;1.13;1.13;;;;;7.40;96436.00;;;;5113736;28;20212;-51
2022/10/05 02:30:53;;;;;;;0.60;0.60;;;;;7.40;96440.00;;;;5113897;28;20308;-50
2022/10/05 02:33:26;;;;;;;0.70;0.70;;;;;7.40;96435.00;;;;5113703;28;20225;-50
2022/10/05 02:35:54;;;;;;;0.87;0.87;;;;;7.50;96441.00;;;;5095795;28;20202;-50
2022/10/05 02:38:31;;;;;;;1.10;1.10;;;;;7.60;96442.00;;;;5113563;28;20698;-50
2022/10/05 02:41:05;;;;;;;0.70;0.70;;;;;7.60;96446.00;;;;5095608;28;20564;-50
2022/10/05 02:43:42;;;;;;;0.50;0.50;;;;;7.70;96450.00;;;;5095481;28;20367;-50
2022/10/05 02:46:20;;;;;;;1.40;1.40;;;;;7.80;96457.00;;;;5113613;28;20197;-50
2022/10/05 02:48:58;;;;;;;0.70;0.70;;;;;7.90;96454.00;;;;5113430;28;20213;-50
2022/10/05 02:51:27;;;;;;;0.90;0.90;;;;;7.90;96469.00;;;;5117488;28;20221;-50
2022/10/05 02:54:05;;;;;;;0.70;0.70;;;;;7.90;96462.00;;;;5102217;28;20224;-50
2022/10/05 02:56:36;;;;;;;0.80;0.80;;;;;8.00;96462.00;;;;5120197;28;20213;-50
2022/10/05 02:59:12;;;;;;;0.80;0.80;;;;;8.00;96463.00;;;;5120288;28;20597;-51
2022/10/05 03:01:48;;;;;;;0.70;0.70;;;;;8.00;96470.00;;;;5120611;28;20220;-51
2022/10/05 03:04:26;;;;;;;0.80;0.80;;;;;8.00;96456.00;;;;5120235;28;20796;-50
2022/10/05 03:07:01;;;;;;;0.90;0.90;;;;;7.90;96461.00;;;;5120193;28;20198;-50
2022/10/05 03:09:35;;;;;;;0.60;0.60;;;;;7.80;96465.00;;;;5120118;28;20629;-50
2022/10/05 03:12:11;;;;;;;0.70;0.70;;;;;7.70;96463.00;;;;5119964;28;20292;-50
2022/10/05 03:14:48;;;;;;;0.70;0.70;;;;;7.60;96446.00;;;;5119975;28;20286;-50
2022/10/05 03:17:20;;;;;;;0.83;0.83;;;;;7.50;96450.00;;;;5119876;28;20244;-50
2022/10/05 03:20:02;;;;;;;1.13;1.13;;;;;7.50;96446.00;;;;5119970;28;20190;-50
2022/10/05 03:22:43;;;;;;;0.70;0.70;;;;;7.40;96438.00;;;;5119999;28;20217;-50
2022/10/05 03:25:36;;;;;;;0.73;0.73;;;;;7.40;96433.00;;;;5119919;28;20278;-50
2022/10/05 03:28:09;;;;;;;1.30;1.03;;;;;7.20;96427.00;;;;5119051;28;20218;-50
2022/10/05 03:30:41;;;;;;;1.13;1.13;;;;;7.30;96434.00;;;;5119737;28;20209;-50
2022/10/05 03:33:19;;;;;;;0.70;0.70;;;;;7.30;96423.00;;;;5119703;28;20232;-52
2022/10/05 03:35:55;;;;;;;0.83;0.83;;;;;7.20;96418.00;;;;5119827;28;20186;-50
2022/10/05 03:38:30;;;;;;;0.80;0.80;;;;;7.10;96418.00;;;;5119652;28;20270;-50
2022/10/05 03:41:05;;;;;;;1.00;1.00;;;;;6.90;96415.00;;;;5119791;28;20204;-51
2022/10/05 03:43:49;;;;;;;0.60;0.60;;;;;6.80;96413.00;;;;5119614;28;20189;-50
2022/10/05 03:46:29;;;;;;;0.70;0.70;;;;;6.80;96409.00;;;;5119946;28;20279;-51
2022/10/05 03:49:07;;;;;;;1.07;1.07;;;;;6.90;96406.00;;;;5119645;28;20202;-51
2022/10/05 03:51:38;;;;;;;0.53;0.53;;;;;6.80;96408.00;;;;5119447;28;20312;-53
2022/10/05 03:54:11;;;;;;;0.83;0.83;;;;;6.80;96400.00;;;;5119518;28;20193;-54
2022/10/05 03:56:43;;;;;;;1.30;1.30;;;;;6.90;96407.00;;;;5119583;28;20189;-54
2022/10/05 03:59:19;;;;;;;0.70;0.70;;;;;6.90;96402.00;;;;5101703;28;20220;-51
2022/10/05 04:01:51;;;;;;;0.80;0.80;;;;;7.00;96402.00;;;;5118104;28;20613;-52
2022/10/05 04:04:23;;;;;;;0.60;0.60;;;;;7.00;96406.00;;;;5115696;28;20276;-51
2022/10/05 04:06:54;;;;;;;0.70;0.70;;;;;7.00;96403.00;;;;5116135;28;20552;-50
2022/10/05 04:09:25;;;;;;;0.60;0.60;;;;;7.10;96398.00;;;;5115934;28;20206;-51
2022/10/05 04:11:57;;;;;;;1.10;1.07;;;;;7.10;96399.00;;;;5115731;28;20294;-51
2022/10/05 04:14:26;;;;;;;0.60;0.60;;;;;6.90;96400.00;;;;5115905;28;20206;-50
2022/10/05 04:16:58;;;;;;;0.60;0.60;;;;;6.90;96403.00;;;;5115850;28;20236;-50
2022/10/05 04:19:33;;;;;;;1.00;1.00;;;;;7.00;96408.00;;;;5097972;28;20352;-50
2022/10/05 04:22:07;;;;;;;0.87;0.87;;;;;6.90;96411.00;;;;5115602;28;20229;-53
2022/10/05 04:24:39;;;;;;;4.83;1.03;;;;;7.10;96409.00;;;;5115922;28;20308;-51
2022/10/05 04:27:11;;;;;;;0.50;0.50;;;;;7.10;96399.00;;;;5115632;28;20224;-50
2022/10/05 04:29:41;;;;;;;2.53;2.00;;;;;7.10;96407.00;;;;5115502;28;20319;-50
2022/10/05 04:32:25;;;;;;;0.50;0.50;;;;;7.00;96402.00;;;;5115460;28;20229;-51
2022/10/05 04:35:19;;;;;;;0.60;0.60;;;;;7.10;96393.00;;;;5097500;28;20210;-50
2022/10/05 04:37:56;;;;;;;0.77;0.77;;;;;7.10;96395.00;;;;5097359;28;20225;-51
2022/10/05 04:40:37;;;;;;;0.80;0.80;;;;;7.10;96393.00;;;;5115542;28;20194;-51
2022/10/05 04:43:12;;;;;;;0.67;0.67;;;;;7.10;96385.00;;;;5115312;28;20212;-48
2022/10/05 04:45:55;;;;;;;1.00;1.00;;;;;7.20;96400.00;;;;5115185;28;20224;-48
2022/10/05 04:48:49;;;;;;;0.83;0.83;;;;;7.30;96393.00;;;;5115169;28;20489;-48
2022/10/05 04:51:30;;;;;;;0.60;0.60;;;;;7.20;96404.00;;;;5096759;28;20198;-48
2022/10/05 04:54:05;;;;;;;0.60;0.60;;;;;7.10;96397.00;;;;5114970;28;20287;-48
2022/10/05 04:56:37;;;;;;;0.60;0.60;;;;;7.10;96399.00;;;;5115146;28;20217;-48
2022/10/05 04:59:20;;;;;;;1.00;1.00;;;;;7.20;96404.00;;;;5115113;28;20204;-48
2022/10/05 05:02:03;;;;;;;1.20;1.20;;;;;7.10;96418.00;;;;5114840;28;20241;-50
2022/10/05 05:05:04;;;;;;;1.90;1.80;;;;;7.20;96419.00;;;;5096964;28;20693;-50
2022/10/05 05:07:43;;;;;;;0.60;0.60;;;;;7.20;96420.00;;;;5114379;28;20304;-51
2022/10/05 05:10:46;;;;;;;0.73;0.73;;;;;7.10;96428.00;;;;5114992;28;20277;-51
2022/10/05 05:13:27;;;;;;;0.80;0.80;;;;;7.00;96434.00;;;;5096604;28;20226;-52
2022/10/05 05:16:03;;;;;;;0.90;0.90;;;;;7.10;96431.00;;;;5114899;28;20242;-51
2022/10/05 05:18:45;;;;;;;1.00;1.00;;;;;7.00;96431.00;;;;5114840;28;20190;-51
2022/10/05 05:21:24;;;;;;;0.90;0.90;;;;;6.90;96431.00;;;;5115107;28;20193;-51
2022/10/05 05:24:03;;;;;;;2.43;2.17;;;;;6.90;96431.00;;;;5114958;28;20317;-50
2022/10/05 05:26:38;;;;;;;2.30;2.03;;;;;6.80;96427.00;;;;5114816;28;20605;-50
2022/10/05 05:29:15;;;;;;;1.33;1.33;;;;;6.40;96416.00;;;;5114585;28;20202;-51
2022/10/05 05:31:47;;;;;;;1.17;1.17;;;;;6.30;96418.00;;;;5114473;28;20284;-49
2022/10/05 05:34:32;;;;;;;0.97;0.97;;;;;6.30;96420.00;;;;5114695;28;20174;-50
2022/10/05 05:37:06;;;;;;;1.87;1.77;;;;;6.40;96423.00;;;;5114533;28;20213;-50
2022/10/05 05:39:45;;;;;;;2.97;2.17;;;;;6.40;96434.00;;;;5114617;28;20275;-50
2022/10/05 05:42:33;;;;;;;1.20;1.17;;;;;6.30;96439.00;;;;5114499;28;20222;-50
2022/10/05 05:45:10;;;;;;;1.60;1.13;;;;;6.30;96429.00;;;;5096556;28;20661;-50
2022/10/05 05:47:40;;;;;;;1.10;1.10;;;;;6.20;96433.00;;;;5114426;28;20221;-49
2022/10/05 05:50:35;;;;;;;0.80;0.80;;;;;6.20;96441.00;;;;5096429;28;20206;-50
2022/10/05 05:53:11;;;;;;;0.93;0.93;;;;;6.40;96438.00;;;;5113671;28;20226;-50
2022/10/05 05:55:43;;;;;;;0.70;0.70;;;;;6.50;96447.00;;;;5114409;28;20185;-50
2022/10/05 05:58:18;;;;;;;1.67;1.60;;;;;6.60;96449.00;;;;5114261;28;20270;-50
2022/10/05 06:00:53;;;;;;;0.80;0.80;;;;;6.60;96439.00;;;;5096194;28;20648;-50
2022/10/05 06:03:26;;;;;;;0.60;0.60;;;;;6.60;96438.00;;;;5096003;28;20232;-49
2022/10/05 06:05:57;;;;;;;0.70;0.70;;;;;6.60;96446.00;;;;5114155;28;20194;-50
2022/10/05 06:08:30;;;;;;;0.60;0.60;;;;;6.60;96446.00;;;;5114093;28;20274;-50
2022/10/05 06:11:01;;;;;;;0.60;0.60;;;;;6.60;96459.00;;;;5114037;28;20645;-50
2022/10/05 06:13:32;;;;;;;1.00;1.00;;;;;6.60;96459.00;;;;5113912;28;20304;-51
2022/10/05 06:16:05;;;;;;;1.37;1.07;;;;;6.80;96457.00;;;;5095931;28;20198;-50
2022/10/05 06:18:36;;;;;;;0.70;0.70;;;;;6.90;96456.00;;;;5113928;28;20313;-50
2022/10/05 06:21:14;;;;;;;0.67;0.67;;;;;6.90;96462.00;;;;5113860;28;20233;-50
2022/10/05 06:23:50;;;;;;;8.67;1.30;;;;;6.90;96468.00;;;;5113872;28;20302;-50
2022/10/05 06:26:28;;;;;;;0.80;0.80;;;;;7.00;96468.00;;;;5113121;28;20193;-56
2022/10/05 06:29:00;;;;;;;0.70;0.70;;;;;7.00;96467.00;;;;5113831;28;20216;-50
2022/10/05 06:31:41;;;;;;;0.73;0.73;;;;;6.80;96464.00;;;;5113804;28;20197;-50
2022/10/05 06:34:19;;;;;;;0.83;0.83;;;;;7.00;96470.00;;;;5113775;28;20221;-49
2022/10/05 06:36:50;;;;;;;0.60;0.60;;;;;7.20;96478.00;;;;5095614;28;20205;-50
2022/10/05 06:39:41;;;;;;;0.70;0.70;;;;;7.20;96476.00;;;;5113514;28;20585;-47
2022/10/05 06:42:37;;;;;;;0.90;0.90;;;;;7.10;96483.00;;;;5113398;28;20286;-47
2022/10/05 06:45:17;;;;;;;0.67;0.67;;;;;7.40;96486.00;;;;5069163;28;20279;-49
2022/10/05 06:47:50;;;;;;;1.70;1.03;;;;;7.60;96490.00;;;;5113320;28;20213;-49
2022/10/05 06:50:29;;;;;;;1.27;1.17;;;;;7.70;96485.00;;;;5113424;28;20292;-48
2022/10/05 06:53:08;;;;;;;1.90;1.23;;;;;7.90;96487.00;;;;5113238;28;20217;-49
2022/10/05 06:55:43;;;;;;;0.60;0.60;;;;;8.00;96493.00;;;;5113200;28;20209;-49
2022/10/05 06:58:26;;;;;;;0.70;0.70;;;;;8.30;96485.00;;;;5113336;28;20209;-49
2022/10/05 07:01:01;;;;;;;0.80;0.80;;;;;8.30;96487.00;;;;5113278;28;20214;-50
2022/10/05 07:03:40;;;;;;;0.77;0.77;;;;;8.30;96490.00;;;;5113300;28;20338;-49
2022/10/05 07:06:13;;;;;;;1.27;1.27;;;;;8.20;96499.00;;;;5095198;28;20233;-49
2022/10/05 07:08:55;;;;;;;0.77;0.77;;;;;8.40;96488.00;;;;5095030;28;20194;-49
2022/10/05 07:11:35;;;;;;;1.57;0.90;;;;;8.50;96492.00;;;;5095199;28;20633;-49
2022/10/05 07:14:29;;;;;;;0.80;0.80;;;;;8.50;96489.00;;;;5112352;28;20519;-50
2022/10/05 07:17:20;;;;;;;0.57;0.57;;;;;8.60;96500.00;;;;5094548;28;20224;-51
2022/10/05 07:19:56;;;;;;;0.70;0.70;;;;;8.50;96490.00;;;;5113257;28;20645;-50
2022/10/05 07:22:53;;;;;;;0.97;0.97;;;;;8.50;96494.00;;;;5113130;28;20315;-50
2022/10/05 07:25:23;;;;;;;2.23;1.23;;;;;8.60;96493.00;;;;5112914;28;20201;-50
2022/10/05 07:27:56;;;;;;;0.50;0.50;;;;;8.60;96487.00;;;;5112931;28;20191;-50
2022/10/05 07:30:24;;;;;;;0.60;0.60;;;;;8.80;96484.00;;;;5112929;28;20202;-50
2022/10/05 07:32:59;;;;;;;0.67;0.67;;;;;8.80;96485.00;;;;5112801;28;20222;-50
2022/10/05 07:38:26;;;;;;;0.90;0.90;;;;;9.10;96476.00;;;;5114828;28;20295;-50
2022/10/05 07:41:01;;;;;;;1.20;0.80;;;;;9.10;96479.00;;;;5116360;28;20303;-50
2022/10/05 07:43:36;;;;;;;1.13;1.07;;;;;9.10;96490.00;;;;5116469;28;20196;-50
2022/10/05 07:46:12;;;;;;;0.60;0.60;;;;;9.10;96492.00;;;;5116265;28;20221;-50
2022/10/05 07:48:55;;;;;;;0.67;0.67;;;;;9.20;96500.00;;;;5116330;28;20637;-51
2022/10/05 07:51:32;;;;;;;0.63;0.63;;;;;9.40;96498.00;;;;5116438;28;20221;-50
2022/10/05 07:54:15;;;;;;;1.70;1.60;;;;;9.60;96502.00;;;;5116408;28;20276;-50
2022/10/05 07:56:44;;;;;;;1.37;1.27;;;;;9.60;96506.00;;;;5098437;28;20263;-51
2022/10/05 07:59:22;;;;;;;0.73;0.73;;;;;9.70;96506.00;;;;5116342;28;20221;-51
2022/10/05 08:01:59;;;;;;;0.80;0.80;;;;;9.80;96494.00;;;;5116448;28;20567;-50
2022/10/05 08:04:36;;;;;;;0.63;0.63;;;;;9.90;96489.00;;;;5098399;28;20213;-49
2022/10/05 08:07:06;;;;;;;1.00;1.00;;;;;10.00;96497.00;;;;5116238;28;20277;-49
2022/10/05 08:09:38;;;;;;;3.70;1.10;;;;;10.10;96494.00;;;;5116315;28;20289;-49
2022/10/05 08:12:24;;;;;;;0.90;0.90;;;;;10.30;96493.00;;;;5116083;28;20306;-49
2022/10/05 08:14:55;;;;;;;1.10;1.10;;;;;10.40;96502.00;;;;5098024;28;20312;-49
2022/10/05 08:17:34;;;;;;;0.93;0.93;;;;;10.50;96486.00;;;;5116001;28;20194;-49
2022/10/05 08:20:17;;;;;;;1.13;1.10;;;;;10.60;96490.00;;;;5097777;28;20222;-49
2022/10/05 08:22:49;;;;;;;1.10;1.10;;;;;10.80;96491.00;;;;5097852;28;20532;-49
2022/10/05 08:25:24;;;;;;;1.07;1.07;;;;;10.90;96488.00;;;;5115760;28;20225;-49
2022/10/05 08:27:55;;;;;;;1.73;1.63;;;;;11.00;96486.00;;;;5115754;28;20201;-49
2022/10/05 08:30:22;;;;;;;1.20;1.20;;;;;11.20;96477.00;;;;5115713;28;20190;-49
2022/10/05 08:32:56;;;;;;;1.60;1.37;;;;;11.30;96491.00;;;;5115468;28;20312;-49
2022/10/05 08:35:28;;;;;;;0.60;0.60;;;;;11.50;96499.00;;;;5115645;28;20204;-49
2022/10/05 08:37:56;;;;;;;2.03;1.10;;;;;11.80;96495.00;;;;5115355;28;20218;-49
2022/10/05 08:40:57;;;;;;;0.77;0.77;;;;;11.90;96495.00;;;;5115416;28;20237;-49
2022/10/05 08:43:55;;;;;;;4.53;2.00;;;;;11.80;96498.00;;;;5091428;28;20295;-49
2022/10/05 08:46:47;;;;;;;1.00;1.00;;;;;11.90;96493.00;;;;5115482;28;20198;-49
2022/10/05 08:49:48;;;;;;;1.73;1.20;;;;;12.10;96496.00;;;;5101771;28;20238;-49
2022/10/05 08:52:29;;;;;;;1.27;1.23;;;;;12.30;96488.00;;;;5093136;28;20222;-49
2022/10/05 08:55:32;;;;;;;1.37;1.37;;;;;12.50;96495.00;;;;5115386;28;20734;-50
2022/10/05 08:58:29;;;;;;;16.70;0.97;;;;;12.60;96493.00;;;;5115347;28;20210;-49
2022/10/05 09:01:04;;;;;;;1.90;1.10;;;;;12.70;96483.00;;;;5115048;28;20224;-50
2022/10/05 09:04:02;;;;;;;1.17;1.17;;;;;13.00;96480.00;;;;5115222;28;20630;-51
2022/10/05 09:06:49;;;;;;;1.00;1.00;;;;;13.30;96474.00;;;;5113180;28;20241;-49
2022/10/05 09:09:50;;;;;;;0.70;0.70;;;;;13.60;96480.00;;;;5098585;28;20209;-48
2022/10/05 09:12:44;;;;;;;1.10;1.10;;;;;13.70;96477.00;;;;5097074;28;20226;-49
2022/10/05 09:15:33;;;;;;;0.60;0.60;;;;;13.80;96476.00;;;;5115031;28;20197;-50
2022/10/05 09:18:42;;;;;;;0.70;0.70;;;;;14.00;96488.00;;;;5114871;28;20214;-50
2022/10/05 09:21:18;;;;;;;0.80;0.80;;;;;14.10;96474.00;;;;5114879;28;20263;-53
2022/10/05 09:23:55;;;;;;;0.50;0.50;;;;;14.30;96478.00;;;;5114544;28;20213;-50
2022/10/05 09:26:43;;;;;;;0.83;0.83;;;;;14.60;96427.00;;;;5114657;28;20186;-50
2022/10/05 09:29:33;;;;;;;0.63;0.63;;;;;14.80;96476.00;;;;5096752;28;20198;-50
2022/10/05 09:32:26;;;;;;;0.83;0.83;;;;;14.90;96474.00;;;;5093383;28;20260;-53
2022/10/05 09:35:06;;;;;;;0.63;0.63;;;;;15.30;96474.00;;;;5114821;28;20243;-50
2022/10/05 09:37:57;;;;;;;0.80;0.80;;;;;15.50;96467.00;;;;5114721;28;20575;-51
2022/10/05 09:41:14;;;;;;;0.70;0.70;;;;;15.80;96473.00;;;;5114787;28;20205;-51
2022/10/05 09:44:13;;;;;;;0.60;0.60;;;;;16.10;96470.00;;;;5114590;28;20567;-52
2022/10/05 09:46:57;;;;;;;0.67;0.67;;;;;16.30;96470.00;;;;5114472;28;20208;-51
2022/10/05 09:49:52;;;;;;;0.87;0.87;;;;;16.60;96473.00;;;;5114447;28;20225;-50
2022/10/05 09:52:48;;;;;;;0.50;0.50;;;;;16.90;96478.00;;;;5096355;28;20312;-51
2022/10/05 09:55:54;;;;;;;0.50;0.50;;;;;17.00;96466.00;;;;5114468;28;20198;-52
2022/10/05 09:58:52;;;;;;;0.83;0.83;;;;;17.30;96452.00;;;;5105746;28;20302;-51
2022/10/05 10:01:31;;;;;;;0.77;0.77;;;;;17.50;96454.00;;;;5113214;28;20205;-51
2022/10/05 10:04:28;;;;;;;0.50;0.50;;;;;17.60;96450.00;;;;5114197;28;20206;-51
2022/10/05 10:07:22;;;;;;;0.60;0.60;;;;;17.70;96442.00;;;;5114216;28;20212;-51
2022/10/05 10:10:48;;;;;;;0.50;0.50;;;18.40;67.70;17.90;96441.00;;;;5096048;28;20197;-52
2022/10/05 10:13:38;;;;;;;0.50;0.50;;;;;18.20;96437.00;;;;5114008;28;20220;-51
2022/10/05 10:16:22;;;;;;;0.50;0.50;;;18.50;63.10;18.20;96443.00;;;;5113998;28;20217;-51
2022/10/05 10:19:30;;;;;;;0.70;0.70;;;18.60;63.80;18.40;96433.00;;;;5114091;28;20202;-51
2022/10/05 10:22:23;;;;;;;0.83;0.83;;;18.90;65.80;18.50;96430.00;;;;5113988;28;20312;-52
2022/10/05 10:25:26;;;;;;;0.77;0.77;;;19.00;66.00;18.90;96432.00;;;;5113838;28;20206;-52
2022/10/05 10:28:24;;;;;;;0.70;0.57;;;19.10;66.00;19.00;96421.00;;;;5113879;28;20221;-52
2022/10/05 10:31:37;;;;;;;0.90;0.90;;;19.40;62.80;19.20;96429.00;;;;5095985;28;20258;-53
2022/10/05 10:34:55;;;;;;;0.40;0.40;;;19.50;63.00;19.20;96423.00;;;;5113552;28;20657;-51
2022/10/05 10:37:38;;;;;;;0.53;0.53;;;19.70;61.80;19.40;96419.00;;;;5086942;28;20534;-49
2022/10/05 10:40:28;;;;;;;0.60;0.60;;;19.80;61.70;19.50;96423.00;;;;5095579;28;20243;-49
2022/10/05 10:43:31;;;;;;;0.50;0.50;;;19.90;59.90;19.60;96421.00;;;;5114112;28;20186;-50
2022/10/05 10:46:11;;;;;;;0.43;0.43;;;20.00;59.90;19.60;96418.00;;;;5113484;28;20221;-50
2022/10/05 10:49:00;;;;;;;0.60;0.60;;;20.10;59.30;19.70;96416.00;;;;5113521;28;20339;-50
2022/10/05 10:52:07;;;;;;;0.50;0.50;;;20.20;58.90;20.00;96419.00;;;;5113331;28;20615;-50
2022/10/05 10:55:16;;;;;;;2.03;1.47;;;20.40;59.60;19.90;96418.00;;;;5113220;28;20202;-50
2022/10/05 10:58:01;;;;;;;0.70;0.70;;;;;20.00;96410.00;;;;5113231;28;20236;-51
2022/10/05 11:00:39;;;;;;;0.47;0.47;;;;;20.10;96409.00;;;;5113307;28;20185;-51
2022/10/05 11:03:32;;;;;;;0.70;0.70;;;;;20.30;96417.00;;;;5113127;28;20232;-49
2022/10/05 11:06:58;;;;;;;0.70;0.70;;;20.70;59.10;20.60;96417.00;;;;5100146;28;20274;-51
2022/10/05 11:10:08;;;;;;;0.50;0.50;;;20.90;59.60;20.60;96413.00;;;;5109648;28;20246;-51
2022/10/05 11:13:16;;;;;;;0.80;0.80;;;;;20.80;96413.00;;;;5115637;28;20320;-53
2022/10/05 11:16:39;;;;;;;1.37;1.17;;;21.10;55.70;20.90;96408.00;;;;5098937;28;20399;-51
2022/10/05 11:19:42;;;;;;;0.80;0.80;;;21.30;57.10;21.00;96403.00;;;;5017743;28;20245;-51
2022/10/05 11:22:34;;;;;;;0.40;0.40;;;21.40;55.70;21.20;96399.00;;;;5116796;28;20197;-51
2022/10/05 11:25:26;;;;;;;0.80;0.80;;;;;21.40;96401.00;;;;5116646;28;20229;-51
2022/10/05 11:28:16;;;;;;;1.10;1.10;;;21.70;52.90;21.50;96400.00;;;;5113406;28;20257;-51
2022/10/05 11:31:35;;;;;;;0.50;0.50;;;21.80;54.00;21.70;96387.00;;;;5116659;28;20308;-51
2022/10/05 11:34:32;;;;;;;0.93;0.93;;;;;22.10;96390.00;;;;5116695;28;20214;-51
2022/10/05 11:37:23;;;;;;;0.80;0.80;;;22.30;52.20;22.10;96391.00;;;;5116674;28;20705;-51
2022/10/05 11:40:15;;;;;;;0.73;0.73;;;22.40;52.50;22.50;96380.00;;;;5116588;28;20190;-52
2022/10/05 11:43:22;;;;;;;0.40;0.40;;;22.60;52.10;22.70;96368.00;;;;5098594;28;20254;-51
2022/10/05 11:46:05;;;;;;;0.40;0.40;;;22.80;51.60;23.10;96377.00;;;;5116694;28;20297;-50
2022/10/05 11:48:50;;;;;;;0.63;0.63;;;;;23.30;96384.00;;;;5116436;28;20228;-52
2022/10/05 11:51:46;;;;;;;0.40;0.40;;;23.50;50.00;23.30;96375.00;;;;5116458;28;20339;-51
2022/10/05 11:54:47;;;;;;;0.38;0.38;;;23.60;47.70;23.50;96379.00;;;;5105719;28;20241;-50
2022/10/05 11:57:22;;;;;;;0.50;0.50;;;;;23.70;96377.00;;;;5116084;28;20284;-50
2022/10/05 11:59:57;;;;;;;0.77;0.77;;;23.90;44.00;23.70;96377.00;;;;5115866;28;20227;-51
2022/10/05 12:02:56;;;;;;;0.60;0.60;;;;;23.20;96372.00;;;;5116180;28;20201;-51
2022/10/05 12:05:34;;;;;;;0.68;0.68;;;23.60;42.00;23.70;96372.00;;;;5115767;28;20343;-53
2022/10/05 12:08:22;;;;;;;1.02;1.02;;;23.80;43.00;23.60;96365.00;;;;5116093;28;20294;-53
2022/10/05 12:11:00;;;;;;;0.50;0.50;;;;;23.60;96375.00;;;;5115925;28;20212;-56
2022/10/05 12:13:36;;;;;;;0.40;0.40;;;;;23.50;96361.00;;;;5116013;28;20222;-52
2022/10/05 12:16:09;;;;;;;0.63;0.63;;;;;23.40;96375.00;;;;5115967;28;20216;-53
2022/10/05 12:18:56;;;;;;;6.22;1.10;;;;;23.50;96363.00;;;;5115891;28;20198;-52
2022/10/05 12:21:30;;;;;;;0.68;0.68;;;;;23.60;96375.00;;;;5115813;28;20659;-52
2022/10/05 12:24:03;;;;;;;0.40;0.40;;;23.90;33.40;23.70;96365.00;;;;5114920;28;20833;-51
2022/10/05 12:26:34;;;;;;;0.50;0.50;;;;;23.90;96370.00;;;;5115899;28;20278;-52
2022/10/05 12:29:07;;;;;;;0.65;0.65;;;;;23.60;96358.00;;;;5115929;28;20553;-51
2022/10/05 12:31:47;;;;;;;2.22;0.68;;;23.90;33.70;23.90;96372.00;;;;5115865;28;20277;-51
2022/10/05 12:34:23;;;;;;;0.50;0.50;;;;;24.40;96381.00;;;;5115869;28;20230;-52
2022/10/05 12:36:54;;;;;;;0.40;0.40;;;;;24.30;96365.00;;;;5116070;28;20194;-51
2022/10/05 12:39:32;;;;;;;0.60;0.60;;;;;24.00;96369.00;;;;5115970;28;20254;-52
2022/10/05 12:42:17;;;;;;;0.40;0.40;;;24.30;31.60;24.10;96380.00;;;;5115964;28;20190;-52
2022/10/05 12:45:04;;;;;;;0.30;0.30;;;;;24.60;96357.00;;;;5115682;28;20209;-52
2022/10/05 12:47:43;;;;;;;0.40;0.40;;;24.80;31.60;24.60;96362.00;;;;5115862;28;20212;-52
2022/10/05 12:50:21;;;;;;;0.45;0.45;;;24.80;32.00;24.90;96348.00;;;;5115765;28;20639;-51
2022/10/05 12:53:13;;;;;;;0.40;0.40;;;25.10;31.10;24.30;96358.00;;;;5097624;28;20221;-51
2022/10/05 12:55:46;;;;;;;0.45;0.45;;;;;24.20;96364.00;;;;5115651;28;20209;-53
2022/10/05 12:58:26;;;;;;;0.60;0.60;;;;;25.00;96351.00;;;;5097695;28;20276;-52
2022/10/05 13:01:03;;;;;;;0.60;0.60;;;25.30;30.90;25.30;96361.00;;;;5115636;28;20190;-52
2022/10/05 13:03:38;;;;;;;0.38;0.38;;;25.40;29.80;25.60;96353.00;;;;5097512;28;20266;-52
2022/10/05 13:06:18;;;;;;;0.40;0.40;;;25.70;30.10;25.60;96353.00;;;;5115450;28;20197;-51
2022/10/05 13:08:55;;;;;;;0.63;0.63;;;;;24.70;96360.00;;;;5115387;28;20237;-53
2022/10/05 13:11:32;;;;;;;0.60;0.60;;;;;24.60;96364.00;;;;5115523;28;20273;-51
2022/10/05 13:14:10;;;;;;;0.75;0.75;;;;;24.90;96356.00;;;;5115282;28;20232;-53
2022/10/05 13:16:47;;;;;;;0.60;0.60;;;;;24.80;96370.00;;;;5115353;28;20194;-51
2022/10/05 13:19:38;;;;;;;0.50;0.50;;;24.90;28.20;24.30;96345.00;;;;5115263;28;20682;-52
2022/10/05 13:22:21;;;;;;;0.32;0.32;;;;;24.20;96362.00;;;;5115056;28;20300;-51